METAR Data
IDs: Format: Raw Decoded Include TAF

Data at: 0154 UTC 16 Jan 2019

METAR for:PADQ (Kodiak Arpt, AK, US)
Text:PADQ 160053Z 33011KT 9SM FEW022 BKN028 OVC034 05/03 A2955 RMK AO2 RAE20 SLP007 P0000 T00500028
Temperature: 5.0°C ( 41°F)
Dewpoint: 2.8°C ( 37°F) [RH = 86%]
Pressure (altimeter):29.55 inches Hg (1000.8 mb) [Sea level pressure: 1000.7 mb]
Winds:from the NNW (330 degrees) at 13 MPH (11 knots; 5.7 m/s)
Visibility: 9 sm ( 14 km)
Ceiling:2800 feet AGL
Clouds: few clouds at 2200 feet AGL, broken clouds at 2800 feet AGL, overcast cloud deck at 3400 feet AGL
Text:PADQ 160045Z 36011G17KT 340V040 10SM FEW022 OVC031 05/03 A2955 RMK AO2 RAE20 P0000 T00500028
Temperature: 5.0°C ( 41°F)
Dewpoint: 2.8°C ( 37°F) [RH = 86%]
Pressure (altimeter):29.55 inches Hg (1000.8 mb)
Winds:from the N (360 degrees) at 13 MPH (11 knots; 5.7 m/s) gusting to 20 MPH (17 knots; 8.7 m/s)
Visibility:10 or more sm (16+ km)
Ceiling:3100 feet AGL
Clouds: few clouds at 2200 feet AGL, overcast cloud deck at 3100 feet AGL
Text:PADQ 152353Z 35008KT 3SM -RA BR BKN013 BKN020 OVC035 05/04 A2957 RMK AO2 SLP013 P0001 60004 T00500039 10056 20044 56024
Temperature: 5.0°C ( 41°F)
Dewpoint: 3.9°C ( 39°F) [RH = 93%]
Pressure (altimeter):29.57 inches Hg (1001.4 mb) [Sea level pressure: 1001.3 mb]
Winds:from the N (350 degrees) at 9 MPH (8 knots; 4.1 m/s)
Visibility: 3 sm ( 5 km)
Ceiling:1300 feet AGL
Clouds: broken clouds at 1300 feet AGL, broken clouds at 2000 feet AGL, overcast cloud deck at 3500 feet AGL
Weather:-RA BR (light rain, mist)
Text:PADQ 152328Z 35009KT 6SM -RA BR BKN013 BKN021 OVC028 05/04 A2958 RMK AO2 P0000 T00500039
Temperature: 5.0°C ( 41°F)
Dewpoint: 3.9°C ( 39°F) [RH = 93%]
Pressure (altimeter):29.58 inches Hg (1001.8 mb)
Winds:from the N (350 degrees) at 10 MPH (9 knots; 4.6 m/s)
Visibility: 6 sm ( 10 km)
Ceiling:1300 feet AGL
Clouds: broken clouds at 1300 feet AGL, broken clouds at 2100 feet AGL, overcast cloud deck at 2800 feet AGL
Weather:-RA BR (light rain, mist)
Text:PADQ 152253Z 02013G20KT 3SM -RA BR SCT014 BKN021 OVC028 05/04 A2959 RMK AO2 RAE25B40 SLP020 P0001 T00500039
Temperature: 5.0°C ( 41°F)
Dewpoint: 3.9°C ( 39°F) [RH = 93%]
Pressure (altimeter):29.59 inches Hg (1002.1 mb) [Sea level pressure: 1002.0 mb]
Winds:from the NNE (20 degrees) at 15 MPH (13 knots; 6.7 m/s) gusting to 23 MPH (20 knots; 10.3 m/s)
Visibility: 3 sm ( 5 km)
Ceiling:2100 feet AGL
Clouds: scattered clouds at 1400 feet AGL, broken clouds at 2100 feet AGL, overcast cloud deck at 2800 feet AGL
Weather:-RA BR (light rain, mist)
Text:PADQ 152233Z 02014G20KT 5SM BR BKN014 OVC024 06/04 A2960 RMK AO2 RAE25 P0000 T00560039
Temperature: 5.6°C ( 42°F)
Dewpoint: 3.9°C ( 39°F) [RH = 89%]
Pressure (altimeter):29.60 inches Hg (1002.5 mb)
Winds:from the NNE (20 degrees) at 16 MPH (14 knots; 7.2 m/s) gusting to 23 MPH (20 knots; 10.3 m/s)
Visibility: 5 sm ( 8 km)
Ceiling:1400 feet AGL
Clouds: broken clouds at 1400 feet AGL, overcast cloud deck at 2400 feet AGL
Weather:BR (mist)
Text:PADQ 152201Z 03018G24KT 5SM -RA BR FEW009 SCT015 OVC020 06/04 A2961 RMK AO2 P0000 T00560044
Temperature: 5.6°C ( 42°F)
Dewpoint: 4.4°C ( 40°F) [RH = 92%]
Pressure (altimeter):29.61 inches Hg (1002.8 mb)
Winds:from the NNE (30 degrees) at 21 MPH (18 knots; 9.3 m/s) gusting to 28 MPH (24 knots; 12.3 m/s)
Visibility: 5 sm ( 8 km)
Ceiling:2000 feet AGL
Clouds: few clouds at 900 feet AGL, scattered clouds at 1500 feet AGL, overcast cloud deck at 2000 feet AGL
Weather:-RA BR (light rain, mist)
Text:PADQ 152153Z 02017G24KT 2 1/2SM -RA BR FEW008 OVC017 06/04 A2961 RMK AO2 RAB2054 SLP029 P0001 T00560044
Temperature: 5.6°C ( 42°F)
Dewpoint: 4.4°C ( 40°F) [RH = 92%]
Pressure (altimeter):29.61 inches Hg (1002.8 mb) [Sea level pressure: 1002.9 mb]
Winds:from the NNE (20 degrees) at 20 MPH (17 knots; 8.7 m/s) gusting to 28 MPH (24 knots; 12.3 m/s)
Visibility: 2.50 sm ( 4.02 km)
Ceiling:1700 feet AGL
Clouds: few clouds at 800 feet AGL, overcast cloud deck at 1700 feet AGL
Weather:-RA BR (light rain, mist)
Text:PADQ 152144Z 02013G17KT 1 3/4SM -RA BR FEW008 SCT012 OVC019 06/04 A2962 RMK AO2 RAB2054 P0001 T00560044
Temperature: 5.6°C ( 42°F)
Dewpoint: 4.4°C ( 40°F) [RH = 92%]
Pressure (altimeter):29.62 inches Hg (1003.1 mb)
Winds:from the NNE (20 degrees) at 15 MPH (13 knots; 6.7 m/s) gusting to 20 MPH (17 knots; 8.7 m/s)
Visibility: 1.75 sm ( 2.82 km)
Ceiling:1900 feet AGL
Clouds: few clouds at 800 feet AGL, scattered clouds at 1200 feet AGL, overcast cloud deck at 1900 feet AGL
Weather:-RA BR (light rain, mist)
Text:PADQ 152129Z 01011G19KT 2SM -RA BR FEW010 OVC021 06/04 A2962 RMK AO2 RAB2054 P0001 T00560044
Temperature: 5.6°C ( 42°F)
Dewpoint: 4.4°C ( 40°F) [RH = 92%]
Pressure (altimeter):29.62 inches Hg (1003.1 mb)
Winds:from the N (10 degrees) at 13 MPH (11 knots; 5.7 m/s) gusting to 22 MPH (19 knots; 9.8 m/s)
Visibility: 2.00 sm ( 3.22 km)
Ceiling:2100 feet AGL
Clouds: few clouds at 1000 feet AGL, overcast cloud deck at 2100 feet AGL
Weather:-RA BR (light rain, mist)
Text:PADQ 152053Z 03016KT 6SM BR FEW011 OVC023 06/04 A2964 RMK AO2 RAB1956E53 SLP037 P0000 60001 T00560044 56017
Temperature: 5.6°C ( 42°F)
Dewpoint: 4.4°C ( 40°F) [RH = 92%]
Pressure (altimeter):29.64 inches Hg (1003.8 mb) [Sea level pressure: 1003.7 mb]
Winds:from the NNE (30 degrees) at 18 MPH (16 knots; 8.2 m/s)
Visibility: 6 sm ( 10 km)
Ceiling:2300 feet AGL
Clouds: few clouds at 1100 feet AGL, overcast cloud deck at 2300 feet AGL
Weather:BR (mist)
Text:PADQ 152010Z 02015G24KT 5SM -RA BR FEW012 OVC020 06/04 A2965 RMK AO2 RAB1956 P0000 T00560044
Temperature: 5.6°C ( 42°F)
Dewpoint: 4.4°C ( 40°F) [RH = 92%]
Pressure (altimeter):29.65 inches Hg (1004.1 mb)
Winds:from the NNE (20 degrees) at 17 MPH (15 knots; 7.7 m/s) gusting to 28 MPH (24 knots; 12.3 m/s)
Visibility: 5 sm ( 8 km)
Ceiling:2000 feet AGL
Clouds: few clouds at 1200 feet AGL, overcast cloud deck at 2000 feet AGL
Weather:-RA BR (light rain, mist)
Text:PADQ 152003Z 01016G24KT 3SM -RA BR BKN014 OVC020 06/04 A2965 RMK AO2 RAB1956 P0000 T00560044
Temperature: 5.6°C ( 42°F)
Dewpoint: 4.4°C ( 40°F) [RH = 92%]
Pressure (altimeter):29.65 inches Hg (1004.1 mb)
Winds:from the N (10 degrees) at 18 MPH (16 knots; 8.2 m/s) gusting to 28 MPH (24 knots; 12.3 m/s)
Visibility: 3 sm ( 5 km)
Ceiling:1400 feet AGL
Clouds: broken clouds at 1400 feet AGL, overcast cloud deck at 2000 feet AGL
Weather:-RA BR (light rain, mist)

TAF for:PADQ (Kodiak Arpt, AK, US) issued at 0130 UTC 16 Jan 2019
Text:PADQ 160130Z 1602/1624 33015KT 5SM -RA BR SCT006 OVC015
Forecast period:0200 to 1500 UTC 16 January 2019
Forecast type:FROM: standard forecast or significant change
Winds:from the NNW (330 degrees) at 17 MPH (15 knots; 7.7 m/s)
Visibility: 5 sm ( 8 km)
Ceiling:1500 feet AGL
Clouds: scattered clouds at 600 feet AGL, overcast cloud deck at 1500 feet AGL
Weather:-RA BR (light rain, mist)
Text:TEMPO 1602/1604 6SM -RA BR BKN025
Forecast period:0200 to 0400 UTC 16 January 2019
Forecast type:TEMPORARY: The following changes expected for less than half the time period
Visibility: 6 sm ( 10 km)
Ceiling:2500 feet AGL
Clouds: broken clouds at 2500 feet AGL
Weather:-RA BR (light rain, mist)
Text:FM161500 06015KT 2SM -RA BR OVC006
Forecast period:1500 to 2100 UTC 16 January 2019
Forecast type:FROM: standard forecast or significant change
Winds:from the ENE (60 degrees) at 17 MPH (15 knots; 7.7 m/s)
Visibility: 2.00 sm ( 3.22 km)
Ceiling:600 feet AGL
Clouds: overcast cloud deck at 600 feet AGL
Weather:-RA BR (light rain, mist)
Text:FM162100 08011KT 5SM -SHRA BR SCT006 OVC015
Forecast period:2100 UTC 16 January 2019 to 0000 UTC 17 January 2019
Forecast type:FROM: standard forecast or significant change
Winds:from the E (80 degrees) at 13 MPH (11 knots; 5.7 m/s)
Visibility: 5 sm ( 8 km)
Ceiling:1500 feet AGL
Clouds: scattered clouds at 600 feet AGL, overcast cloud deck at 1500 feet AGL
Weather:-SHRA BR (light rain showers, mist)